createdAt,value
2018-02-16T00:02:00.244Z,16.97
2018-02-16T00:04:26.058Z,17.06
2018-02-16T00:06:51.872Z,17.01
2018-02-16T00:09:17.714Z,17.01
2018-02-16T00:11:44.078Z,16.96
2018-02-16T00:14:09.900Z,16.98
2018-02-16T00:16:35.739Z,16.98
2018-02-16T00:19:01.554Z,16.95
2018-02-16T00:21:27.403Z,16.93
2018-02-16T00:23:53.207Z,17.05
2018-02-16T00:26:19.013Z,16.94
2018-02-16T00:28:44.817Z,16.97
2018-02-16T00:31:10.633Z,17.01
2018-02-16T00:33:36.486Z,17.04
2018-02-16T00:36:02.310Z,17.06
2018-02-16T00:38:28.158Z,17.01
2018-02-16T00:40:54.007Z,16.97
2018-02-16T00:43:19.894Z,16.94
2018-02-16T00:45:46.716Z,16.95
2018-02-16T00:48:13.365Z,16.95
2018-02-16T00:50:39.186Z,17.05
2018-02-16T00:53:04.999Z,16.98
2018-02-16T00:55:30.805Z,17.11
2018-02-16T00:57:56.621Z,16.92
2018-02-16T01:00:22.437Z,16.95
2018-02-16T01:02:48.245Z,16.93
2018-02-16T01:05:14.057Z,16.88
2018-02-16T01:07:40.709Z,17.05
2018-02-16T01:10:06.649Z,16.97
2018-02-16T01:12:32.498Z,17.02
2018-02-16T01:14:58.354Z,16.90
2018-02-16T01:17:24.201Z,17.01
2018-02-16T01:19:50.837Z,16.98
2018-02-16T01:22:17.598Z,16.94
2018-02-16T01:24:44.342Z,17.07
2018-02-16T01:27:10.157Z,17.13
2018-02-16T01:29:36.799Z,16.92
2018-02-16T01:32:02.657Z,17.05
2018-02-16T01:34:28.475Z,17.13
2018-02-16T01:36:54.286Z,17.03
2018-02-16T01:39:20.102Z,17.05
2018-02-16T01:41:45.910Z,17.12
2018-02-16T01:44:19.593Z,17.16
2018-02-16T01:46:45.434Z,16.95
2018-02-16T01:49:11.242Z,17.04
2018-02-16T01:51:37.866Z,17.07
2018-02-16T01:54:03.718Z,17.12
2018-02-16T01:56:29.537Z,17.09
2018-02-16T01:58:55.349Z,17.06
2018-02-16T02:01:21.170Z,17.13
2018-02-16T02:03:46.992Z,17.05
2018-02-16T02:06:12.802Z,17.13
2018-02-16T02:08:38.656Z,17.09
2018-02-16T02:11:04.467Z,17.07
2018-02-16T02:13:30.286Z,17.11
2018-02-16T02:15:56.098Z,17.10
2018-02-16T02:18:21.906Z,17.00
2018-02-16T02:20:47.718Z,17.16
2018-02-16T02:23:13.561Z,17.15
2018-02-16T02:25:39.383Z,17.12
2018-02-16T02:28:05.205Z,17.13
2018-02-16T02:30:31.017Z,17.17
2018-02-16T02:32:56.829Z,17.08
2018-02-16T02:35:22.642Z,17.09
2018-02-16T02:37:49.454Z,17.09
2018-02-16T02:40:16.254Z,17.12
2018-02-16T02:42:42.062Z,17.14
2018-02-16T02:45:07.915Z,17.08
2018-02-16T02:47:34.426Z,17.17
2018-02-16T02:50:01.240Z,17.21
2018-02-16T02:52:27.048Z,17.09
2018-02-16T02:54:53.845Z,17.21
2018-02-16T02:57:20.563Z,17.13
2018-02-16T02:59:47.310Z,17.10
2018-02-16T03:02:14.077Z,17.20
2018-02-16T03:04:39.883Z,17.31
2018-02-16T03:07:06.567Z,17.34
2018-02-16T03:09:33.442Z,17.31
2018-02-16T03:12:00.248Z,17.30
2018-02-16T03:14:26.060Z,17.32
2018-02-16T03:16:51.874Z,17.34
2018-02-16T03:19:17.685Z,17.36
2018-02-16T03:21:43.498Z,17.23
2018-02-16T03:24:09.465Z,17.32
2018-02-16T03:26:35.278Z,17.26
2018-02-16T03:29:01.092Z,17.29
2018-02-16T03:31:26.899Z,17.30
2018-02-16T03:33:52.701Z,17.25
2018-02-16T03:36:19.327Z,17.17
2018-02-16T03:38:45.150Z,17.27
2018-02-16T03:41:10.993Z,17.19
2018-02-16T03:43:36.846Z,17.19
2018-02-16T03:46:03.750Z,17.15
2018-02-16T03:48:29.608Z,17.14
2018-02-16T03:50:55.452Z,17.18
2018-02-16T03:53:21.260Z,17.17
2018-02-16T03:55:47.097Z,17.20
2018-02-16T03:58:13.934Z,17.22
2018-02-16T04:00:40.679Z,17.16
2018-02-16T04:03:06.491Z,17.05
2018-02-16T04:05:33.249Z,17.09
2018-02-16T04:07:59.107Z,17.13
2018-02-16T04:10:25.739Z,17.16
2018-02-16T04:12:51.578Z,17.18
2018-02-16T04:15:17.398Z,17.29
2018-02-16T04:17:43.274Z,17.19
2018-02-16T04:20:10.049Z,17.09
2018-02-16T04:22:36.838Z,17.07
2018-02-16T04:25:03.605Z,17.13
2018-02-16T04:27:30.416Z,17.17
2018-02-16T04:29:56.222Z,17.18
2018-02-16T04:32:22.033Z,17.17
2018-02-16T04:34:48.828Z,17.09
2018-02-16T04:37:15.630Z,17.22
2018-02-16T04:39:41.479Z,17.17
2018-02-16T04:42:07.290Z,17.11
2018-02-16T04:44:33.098Z,17.17
2018-02-16T04:46:58.988Z,17.13
2018-02-16T04:49:24.838Z,17.09
2018-02-16T04:51:50.669Z,17.11
2018-02-16T04:54:16.481Z,17.24
2018-02-16T04:56:42.286Z,17.20
2018-02-16T04:59:08.091Z,17.27
2018-02-16T05:01:33.899Z,17.24
2018-02-16T05:03:59.746Z,17.34
2018-02-16T05:06:25.569Z,17.19
2018-02-16T05:08:51.384Z,17.15
2018-02-16T05:11:17.196Z,17.26
2018-02-16T05:13:43.002Z,17.20
2018-02-16T05:16:08.811Z,17.31
2018-02-16T05:18:34.616Z,17.25
2018-02-16T05:21:00.438Z,17.27
2018-02-16T05:23:26.248Z,17.21
2018-02-16T05:25:52.894Z,17.21
2018-02-16T05:28:18.702Z,17.23
2018-02-16T05:30:44.506Z,17.27
2018-02-16T05:33:10.317Z,17.40
2018-02-16T05:35:36.121Z,17.38
2018-02-16T05:38:01.943Z,17.30
2018-02-16T05:40:27.766Z,17.29
2018-02-16T05:42:53.577Z,17.24
2018-02-16T05:45:19.513Z,17.35
2018-02-16T05:47:45.358Z,17.29
2018-02-16T05:50:11.355Z,17.45
2018-02-16T05:52:37.161Z,17.49
2018-02-16T05:55:02.988Z,17.42
2018-02-16T05:57:29.666Z,17.40
2018-02-16T05:59:55.517Z,17.36
2018-02-16T06:02:21.322Z,17.31
2018-02-16T06:04:47.134Z,17.32
2018-02-16T06:07:13.918Z,17.27
2018-02-16T06:09:39.762Z,17.27
2018-02-16T06:12:05.573Z,17.26
2018-02-16T06:14:31.417Z,17.34
2018-02-16T06:16:58.197Z,17.36
2018-02-16T06:19:24.001Z,17.22
2018-02-16T06:21:50.836Z,17.21
2018-02-16T06:24:16.629Z,17.23
2018-02-16T06:26:42.449Z,17.29
2018-02-16T06:29:09.116Z,17.30
2018-02-16T06:31:34.937Z,17.29
2018-02-16T06:34:00.782Z,17.24
2018-02-16T06:36:26.595Z,17.15
2018-02-16T06:38:52.435Z,17.20
2018-02-16T06:41:19.209Z,17.23
2018-02-16T06:43:46.046Z,17.20
2018-02-16T06:46:12.889Z,17.22
2018-02-16T06:48:39.630Z,17.24
2018-02-16T06:51:05.484Z,17.22
2018-02-16T06:53:32.357Z,17.17
2018-02-16T06:55:59.142Z,17.08
2018-02-16T06:58:25.761Z,17.23
2018-02-16T07:00:52.522Z,17.26
2018-02-16T07:03:19.280Z,17.24
2018-02-16T07:05:46.067Z,17.25
2018-02-16T07:08:11.902Z,17.27
2018-02-16T07:10:37.835Z,17.38
2018-02-16T07:13:04.239Z,17.29
2018-02-16T07:15:30.114Z,17.25
2018-02-16T07:17:56.919Z,17.26
2018-02-16T07:20:22.927Z,17.40
2018-02-16T07:22:49.582Z,17.35
2018-02-16T07:25:16.407Z,17.30
2018-02-16T07:27:43.235Z,17.38
2018-02-16T07:30:09.109Z,17.24
2018-02-16T07:32:34.950Z,17.29
2018-02-16T07:35:00.774Z,17.23
2018-02-16T07:39:59.248Z,17.20
2018-02-16T07:42:25.178Z,17.20
2018-02-16T07:44:51.904Z,17.34
2018-02-16T07:47:18.562Z,17.28
2018-02-16T07:49:47.813Z,17.34
2018-02-16T07:52:13.686Z,17.29
2018-02-16T07:54:39.734Z,17.42
2018-02-16T07:57:05.553Z,17.33
2018-02-16T07:59:31.373Z,17.34
2018-02-16T08:01:57.185Z,17.36
2018-02-16T08:04:23.030Z,17.35
2018-02-16T08:06:49.711Z,17.41
2018-02-16T08:09:15.566Z,17.39
2018-02-16T08:11:41.374Z,17.30
2018-02-16T08:14:07.182Z,17.31
2018-02-16T08:16:34.881Z,17.37
2018-02-16T08:19:02.232Z,17.29
2018-02-16T08:21:28.780Z,17.35
2018-02-16T08:23:55.484Z,17.51
2018-02-16T08:26:22.022Z,17.37
2018-02-16T08:28:49.413Z,17.46
2018-02-16T08:31:15.402Z,17.38
2018-02-16T08:33:41.307Z,17.41
2018-02-16T08:36:07.150Z,17.54
2018-02-16T08:38:32.956Z,17.48
2018-02-16T08:40:58.757Z,17.47
2018-02-16T08:43:24.589Z,17.48
2018-02-16T08:45:50.398Z,17.61
2018-02-16T08:48:16.205Z,17.60
2018-02-16T08:50:42.150Z,17.47
2018-02-16T08:53:08.801Z,17.44
2018-02-16T08:55:34.809Z,17.40
2018-02-16T08:58:00.605Z,17.30
2018-02-16T09:00:26.410Z,17.17
2018-02-16T09:02:52.395Z,17.14
2018-02-16T09:05:18.206Z,17.15
2018-02-16T09:07:44.005Z,17.17
2018-02-16T09:10:09.801Z,16.98
2018-02-16T09:12:35.686Z,16.84
2018-02-16T09:15:01.486Z,17.11
2018-02-16T09:17:27.326Z,17.02
2018-02-16T09:19:53.134Z,17.09
2018-02-16T09:22:19.050Z,16.90
2018-02-16T09:24:44.991Z,17.00
2018-02-16T09:27:10.794Z,16.92
2018-02-16T09:29:36.657Z,16.93
2018-02-16T09:32:02.460Z,17.01
2018-02-16T09:34:28.338Z,16.91
2018-02-16T09:36:54.726Z,17.08
2018-02-16T09:39:23.006Z,16.90
2018-02-16T09:41:49.639Z,17.06
2018-02-16T09:44:15.490Z,17.01
2018-02-16T09:46:41.293Z,16.74
2018-02-16T09:49:07.176Z,16.90
2018-02-16T09:51:32.981Z,16.76
2018-02-16T09:53:58.945Z,16.89
2018-02-16T09:56:24.786Z,17.07
2018-02-16T09:58:50.611Z,17.13
2018-02-16T10:01:16.417Z,17.12
2018-02-16T10:03:42.281Z,17.08
2018-02-16T10:06:08.126Z,17.04
2018-02-16T10:08:33.974Z,16.94
2018-02-16T10:11:00.622Z,16.85
2018-02-16T10:13:26.653Z,16.85
2018-02-16T10:15:53.374Z,16.95
2018-02-16T10:18:19.185Z,17.14
2018-02-16T10:20:46.034Z,17.24
2018-02-16T10:23:11.841Z,16.85
2018-02-16T10:25:37.865Z,17.16
2018-02-16T10:28:03.666Z,17.06
2018-02-16T10:30:29.513Z,17.25
2018-02-16T10:32:55.357Z,17.31
2018-02-16T10:35:21.275Z,17.31
2018-02-16T10:37:47.100Z,17.32
2018-02-16T10:40:12.906Z,17.36
2018-02-16T10:42:38.823Z,17.43
2018-02-16T10:45:04.639Z,17.51
2018-02-16T10:47:30.450Z,17.35
2018-02-16T10:49:56.302Z,17.42
2018-02-16T10:52:22.118Z,17.24
2018-02-16T10:54:49.090Z,17.49
2018-02-16T10:57:14.900Z,17.52
2018-02-16T10:59:40.748Z,17.46
2018-02-16T11:02:12.637Z,17.54
2018-02-16T11:04:44.756Z,17.53
2018-02-16T11:07:16.738Z,17.51
2018-02-16T11:09:42.626Z,17.60
2018-02-16T11:12:08.602Z,17.66
2018-02-16T11:14:35.049Z,17.44
2018-02-16T11:17:00.898Z,17.54
2018-02-16T11:19:26.707Z,17.45
2018-02-16T11:21:53.526Z,17.54
2018-02-16T11:24:20.270Z,17.39
2018-02-16T11:26:46.078Z,17.29
2018-02-16T11:29:11.887Z,17.60
2018-02-16T11:31:37.687Z,17.68
2018-02-16T11:34:03.537Z,17.70
2018-02-16T11:36:30.357Z,17.67
2018-02-16T11:38:57.178Z,17.69
2018-02-16T11:41:23.998Z,17.69
2018-02-16T11:43:49.841Z,17.75
2018-02-16T11:46:15.705Z,17.59
2018-02-16T11:48:42.324Z,17.62
2018-02-16T11:51:08.278Z,17.50
2018-02-16T11:53:34.082Z,17.41
2018-02-16T11:55:59.907Z,17.34
2018-02-16T11:58:25.715Z,17.54
2018-02-16T12:00:51.517Z,17.44
2018-02-16T12:03:18.338Z,17.42
2018-02-16T12:05:44.185Z,17.46
2018-02-16T12:08:10.003Z,17.58
2018-02-16T12:10:35.817Z,17.68
2018-02-16T12:13:01.622Z,17.75
2018-02-16T12:15:27.438Z,17.65
2018-02-16T12:17:53.242Z,17.69
2018-02-16T12:20:19.057Z,17.68
2018-02-16T12:22:44.869Z,17.84
2018-02-16T12:25:10.681Z,18.01
2018-02-16T12:27:37.409Z,17.89
2018-02-16T12:30:03.223Z,17.93
2018-02-16T12:32:29.885Z,17.94
2018-02-16T12:34:55.692Z,17.91
2018-02-16T12:37:22.464Z,17.93
2018-02-16T12:39:48.678Z,17.97
2018-02-16T12:42:21.382Z,17.99
2018-02-16T12:44:47.200Z,17.93
2018-02-16T12:47:13.014Z,17.95
2018-02-16T12:49:38.822Z,17.83
2018-02-16T12:52:04.629Z,17.83
2018-02-16T12:54:30.433Z,17.80
2018-02-16T12:56:56.246Z,17.93
2018-02-16T12:59:22.238Z,17.86
2018-02-16T13:01:48.077Z,17.80
2018-02-16T13:04:13.911Z,17.80
2018-02-16T13:06:39.728Z,17.79
2018-02-16T13:09:05.561Z,17.74
2018-02-16T13:11:31.370Z,17.53
2018-02-16T13:13:57.187Z,17.51
2018-02-16T13:16:22.996Z,17.69
2018-02-16T13:18:48.810Z,17.67
2018-02-16T13:21:14.622Z,17.82
2018-02-16T13:23:40.436Z,17.81
2018-02-16T13:26:06.266Z,17.75
2018-02-16T13:28:32.106Z,17.70
2018-02-16T13:30:58.822Z,17.77
2018-02-16T13:33:25.650Z,17.79
2018-02-16T13:35:52.326Z,17.80
2018-02-16T13:38:19.078Z,17.87
2018-02-16T13:40:45.872Z,18.03
2018-02-16T13:43:12.589Z,18.00
2018-02-16T13:45:38.398Z,18.01
2018-02-16T13:48:05.047Z,17.98
2018-02-16T13:50:31.576Z,17.85
2018-02-16T13:52:58.241Z,17.95
2018-02-16T13:55:24.890Z,17.99
2018-02-16T13:57:50.691Z,17.95
2018-02-16T14:00:17.555Z,17.96
2018-02-16T14:02:43.358Z,17.91
2018-02-16T14:05:10.114Z,17.91
2018-02-16T14:07:35.930Z,17.84
2018-02-16T14:10:02.810Z,17.93
2018-02-16T14:12:28.649Z,17.88
2018-02-16T14:14:55.313Z,17.89
2018-02-16T14:17:22.174Z,17.94
2018-02-16T14:19:48.849Z,17.88
2018-02-16T14:22:14.697Z,17.95
2018-02-16T14:24:41.306Z,17.91
2018-02-16T14:27:07.146Z,17.81
2018-02-16T14:29:32.986Z,17.81
2018-02-16T14:31:58.796Z,17.93
2018-02-16T14:34:25.584Z,17.93
2018-02-16T14:36:51.386Z,17.81
2018-02-16T14:39:18.018Z,17.73
2018-02-16T14:41:43.833Z,17.84
2018-02-16T14:44:10.580Z,17.86
2018-02-16T14:46:36.406Z,17.85
2018-02-16T14:49:03.176Z,17.83
2018-02-16T14:51:29.958Z,17.84
2018-02-16T14:53:56.718Z,17.73
2018-02-16T14:56:23.354Z,17.72
2018-02-16T14:58:49.206Z,17.82
2018-02-16T15:01:15.925Z,17.83
2018-02-16T15:03:41.749Z,17.72
2018-02-16T15:06:08.510Z,17.74
2018-02-16T15:08:34.352Z,17.76
2018-02-16T15:11:01.044Z,17.73
2018-02-16T15:13:27.715Z,17.75
2018-02-16T15:15:54.498Z,17.94
2018-02-16T15:18:21.119Z,17.79
2018-02-16T15:20:47.914Z,17.71
2018-02-16T15:23:14.702Z,17.81
2018-02-16T15:25:41.313Z,17.83
2018-02-16T15:28:07.123Z,17.71
2018-02-16T15:30:32.945Z,17.75
2018-02-16T15:32:59.641Z,17.75
2018-02-16T15:35:25.446Z,17.65
2018-02-16T15:37:52.287Z,17.73
2018-02-16T15:40:18.086Z,17.72
2018-02-16T15:42:44.886Z,17.86
2018-02-16T15:45:10.726Z,17.80
2018-02-16T15:47:37.546Z,17.95
2018-02-16T15:50:04.313Z,17.84
2018-02-16T15:52:30.117Z,17.84
2018-02-16T15:54:56.889Z,17.86
2018-02-16T15:57:23.625Z,17.74
2018-02-16T15:59:50.423Z,17.83
2018-02-16T16:02:16.233Z,17.80
2018-02-16T16:04:42.986Z,17.74
2018-02-16T16:10:19.495Z,17.52
2018-02-16T16:12:45.280Z,17.67
2018-02-16T16:15:11.866Z,17.67
2018-02-16T16:17:37.642Z,17.70
2018-02-16T16:20:04.369Z,17.72
2018-02-16T16:22:30.169Z,17.75
2018-02-16T16:24:56.873Z,17.67
2018-02-16T16:27:22.660Z,17.71
2018-02-16T16:29:48.446Z,17.76
2018-02-16T16:32:14.221Z,17.71
2018-02-16T16:34:40.000Z,17.70
2018-02-16T16:37:05.770Z,17.70
2018-02-16T16:39:32.562Z,17.74
2018-02-16T16:41:58.339Z,17.69
2018-02-16T16:44:25.073Z,17.71
2018-02-16T16:46:50.859Z,17.64
2018-02-16T16:49:16.630Z,17.65
2018-02-16T16:51:42.414Z,17.67
2018-02-16T16:54:08.246Z,17.69
2018-02-16T16:56:34.940Z,17.62
2018-02-16T16:59:01.694Z,17.69
2018-02-16T17:01:27.473Z,17.59
2018-02-16T17:03:53.266Z,17.61
2018-02-16T17:06:19.048Z,17.69
2018-02-16T17:08:44.827Z,17.77
2018-02-16T17:11:10.642Z,17.60
2018-02-16T17:13:36.418Z,17.62
2018-02-16T17:16:02.197Z,17.51
2018-02-16T17:18:27.975Z,17.61
2018-02-16T17:20:53.749Z,17.72
2018-02-16T17:23:19.518Z,17.68
2018-02-16T17:25:45.329Z,17.69
2018-02-16T17:28:11.938Z,17.69
2018-02-16T17:30:38.785Z,17.63
2018-02-16T17:33:05.507Z,17.68
2018-02-16T17:35:32.190Z,17.79
2018-02-16T17:37:58.003Z,17.68
2018-02-16T17:40:24.601Z,17.62
2018-02-16T17:42:50.431Z,17.64
2018-02-16T17:45:16.997Z,17.59
2018-02-16T17:47:42.848Z,17.57
2018-02-16T17:50:08.620Z,17.65
2018-02-16T17:52:34.443Z,17.59
2018-02-16T17:55:01.213Z,17.74
2018-02-16T17:57:27.031Z,17.70
2018-02-16T17:59:52.815Z,17.57
2018-02-16T18:02:18.665Z,17.51
2018-02-16T18:04:44.442Z,17.53
2018-02-16T18:07:10.213Z,17.49
2018-02-16T18:09:36.017Z,17.51
2018-02-16T18:12:01.799Z,17.49
2018-02-16T18:14:27.613Z,17.51
2018-02-16T18:16:53.713Z,17.41
2018-02-16T18:19:19.546Z,17.44
2018-02-16T18:21:45.322Z,17.47
2018-02-16T18:24:11.140Z,17.49
2018-02-16T18:26:36.909Z,17.53
2018-02-16T18:29:02.725Z,17.52
2018-02-16T18:31:28.503Z,17.51
2018-02-16T18:33:54.283Z,17.48
2018-02-16T18:36:20.090Z,17.49
2018-02-16T18:38:45.870Z,17.52
2018-02-16T18:41:11.682Z,17.48
2018-02-16T18:43:37.458Z,17.47
2018-02-16T18:46:03.298Z,17.48
2018-02-16T18:48:30.055Z,17.50
2018-02-16T18:50:55.838Z,17.37
2018-02-16T18:53:21.605Z,17.41
2018-02-16T18:55:47.428Z,17.40
2018-02-16T18:58:13.206Z,17.42
2018-02-16T19:00:39.989Z,17.43
2018-02-16T19:03:06.745Z,17.44
2018-02-16T19:05:33.520Z,17.48
2018-02-16T19:07:59.334Z,17.37
2018-02-16T19:10:26.129Z,17.26
2018-02-16T19:12:51.946Z,17.43
2018-02-16T19:15:18.650Z,17.49
2018-02-16T19:17:44.468Z,17.55
2018-02-16T19:20:10.246Z,17.48
2018-02-16T19:22:36.030Z,17.55
2018-02-16T19:25:01.809Z,17.49
2018-02-16T19:27:27.589Z,17.43
2018-02-16T19:29:54.235Z,17.45
2018-02-16T19:32:20.018Z,17.56
2018-02-16T19:34:45.829Z,17.60
2018-02-16T19:37:11.601Z,17.54
2018-02-16T19:39:38.382Z,17.62
2018-02-16T19:42:04.161Z,17.52
2018-02-16T19:44:29.936Z,17.44
2018-02-16T19:46:55.710Z,17.50
2018-02-16T19:49:21.489Z,17.50
2018-02-16T19:51:48.215Z,17.49
2018-02-16T19:54:15.007Z,17.52
2018-02-16T19:56:40.841Z,17.46
2018-02-16T19:59:07.390Z,17.48
2018-02-16T20:01:33.191Z,17.39
2018-02-16T20:04:00.013Z,17.43
2018-02-16T20:06:25.870Z,17.37
2018-02-16T20:08:51.670Z,17.42
2018-02-16T20:11:18.418Z,17.47
2018-02-16T20:13:45.197Z,17.35
2018-02-16T20:16:10.994Z,17.43
2018-02-16T20:18:36.832Z,17.34
2018-02-16T20:21:02.613Z,17.37
2018-02-16T20:23:29.257Z,17.44
2018-02-16T20:25:55.050Z,17.34
2018-02-16T20:28:21.713Z,17.26
2018-02-16T20:30:47.549Z,17.36
2018-02-16T20:33:13.334Z,17.44
2018-02-16T20:35:39.150Z,17.27
2018-02-16T20:38:04.940Z,17.20
2018-02-16T20:40:30.877Z,17.22
2018-02-16T20:42:56.769Z,17.30
2018-02-16T20:45:22.733Z,17.31
2018-02-16T20:47:49.320Z,17.37
2018-02-16T20:50:15.158Z,17.37
2018-02-16T20:52:41.002Z,17.15
2018-02-16T20:55:07.683Z,17.17
2018-02-16T20:57:34.351Z,17.14
2018-02-16T21:00:00.157Z,17.29
2018-02-16T21:02:26.769Z,17.16
2018-02-16T21:04:53.550Z,17.08
2018-02-16T21:07:19.336Z,17.17
2018-02-16T21:09:45.149Z,17.16
2018-02-16T21:12:10.989Z,17.07
2018-02-16T21:14:36.773Z,16.92
2018-02-16T21:17:02.634Z,16.95
2018-02-16T21:19:28.432Z,16.83
2018-02-16T21:21:55.081Z,16.97
2018-02-16T21:24:20.865Z,16.95
2018-02-16T21:26:47.495Z,16.92
2018-02-16T21:29:13.300Z,16.81
2018-02-16T21:31:39.877Z,16.88
2018-02-16T21:34:05.660Z,16.78
2018-02-16T21:36:32.468Z,16.92
2018-02-16T21:38:58.286Z,16.79
2018-02-16T21:41:24.073Z,16.72
2018-02-16T21:43:50.797Z,16.78
2018-02-16T21:46:16.634Z,16.66
2018-02-16T21:48:42.537Z,16.78
2018-02-16T21:51:08.319Z,16.25
2018-02-16T21:53:34.103Z,15.95
2018-02-16T21:55:59.881Z,15.56
2018-02-16T21:58:25.657Z,15.65
2018-02-16T22:00:52.413Z,15.81
2018-02-16T22:03:18.208Z,15.65
2018-02-16T22:05:44.008Z,15.55
2018-02-16T22:08:10.734Z,15.09
2018-02-16T22:10:37.611Z,15.52
2018-02-16T22:13:04.323Z,15.25
2018-02-16T22:15:30.158Z,14.73
2018-02-16T22:17:55.977Z,14.63
2018-02-16T22:20:21.801Z,14.82
2018-02-16T22:22:47.597Z,14.25
2018-02-16T22:25:13.515Z,15.03
2018-02-16T22:27:39.520Z,15.58
2018-02-16T22:30:05.362Z,15.81
2018-02-16T22:32:31.250Z,16.05
2018-02-16T22:34:57.887Z,16.06
2018-02-16T22:37:24.676Z,16.06
2018-02-16T22:39:51.554Z,16.16
2018-02-16T22:42:17.342Z,16.08
2018-02-16T22:44:43.134Z,16.21
2018-02-16T22:47:10.111Z,16.27
2018-02-16T22:49:36.725Z,16.22
2018-02-16T22:52:02.521Z,16.14
2018-02-16T22:54:28.306Z,16.28
2018-02-16T22:56:54.085Z,16.32
2018-02-16T22:59:19.880Z,16.24
2018-02-16T23:01:45.672Z,16.28
2018-02-16T23:04:12.400Z,16.19
2018-02-16T23:06:38.223Z,16.22
2018-02-16T23:09:04.021Z,16.29
2018-02-16T23:11:29.819Z,16.29
2018-02-16T23:13:55.616Z,16.17
2018-02-16T23:16:22.430Z,16.31
2018-02-16T23:18:48.217Z,16.06
2018-02-16T23:21:14.872Z,16.24
2018-02-16T23:23:40.655Z,16.08
2018-02-16T23:26:06.440Z,16.23
2018-02-16T23:28:32.225Z,16.29
2018-02-16T23:30:59.003Z,16.31
2018-02-16T23:33:24.785Z,16.26
2018-02-16T23:35:50.561Z,16.39
2018-02-16T23:38:16.346Z,16.49
2018-02-16T23:40:42.125Z,16.58
2018-02-16T23:43:07.862Z,16.74
2018-02-16T23:45:33.682Z,16.69
2018-02-16T23:48:00.424Z,16.79
2018-02-16T23:50:26.206Z,16.80
2018-02-16T23:52:53.014Z,16.71
2018-02-16T23:55:18.798Z,16.69
2018-02-16T23:57:44.573Z,16.74
